Time;durP1;ratioP1;P1;durP2;ratioP2;P2;SDS_P1;SDS_P2;PMS_P1;PMS_P2;Temp;Humidity;BMP_temperature;BMP_pressure;BME280_temperature;BME280_humidity;BME280_pressure;Samples;Min_cycle;Max_cycle;Signal;HPM_P1;HPM_P2
2022/01/05 00:02:08;;;;;;;2.30;1.70;;;6.90;99.90;;;;;;4953699;29;20436;-73
2022/01/05 00:04:54;;;;;;;2.47;2.03;;;6.90;99.90;;;;;;4952874;29;20200;-72
2022/01/05 00:07:40;;;;;;;2.20;1.75;;;6.90;99.90;;;;;;4950101;28;20485;-73
2022/01/05 00:10:26;;;;;;;3.95;2.00;;;6.90;99.90;;;;;;4949223;29;20227;-73
2022/01/05 00:13:11;;;;;;;2.60;1.80;;;6.90;99.90;;;;;;4950207;29;20623;-73
2022/01/05 00:15:57;;;;;;;2.13;1.77;;;6.90;99.90;;;;;;4951805;28;20208;-73
2022/01/05 00:18:44;;;;;;;2.03;1.55;;;7.00;99.90;;;;;;4950252;28;20303;-72
2022/01/05 00:21:30;;;;;;;1.83;1.40;;;7.00;99.90;;;;;;4948839;29;20591;-73
2022/01/05 00:24:16;;;;;;;2.20;1.70;;;7.10;99.90;;;;;;4950996;29;20576;-73
2022/01/05 00:27:01;;;;;;;5.60;1.92;;;7.10;99.90;;;;;;4952482;29;20423;-73
2022/01/05 00:29:47;;;;;;;2.60;1.70;;;7.10;99.90;;;;;;4947283;29;20201;-73
2022/01/05 00:32:33;;;;;;;2.95;1.80;;;7.10;99.90;;;;;;4951119;29;20291;-72
2022/01/05 00:35:20;;;;;;;2.05;1.50;;;7.00;99.90;;;;;;4950134;29;20204;-73
2022/01/05 00:38:05;;;;;;;2.20;1.38;;;7.00;99.90;;;;;;4948941;28;20231;-73
2022/01/05 00:40:51;;;;;;;2.08;1.65;;;6.90;99.90;;;;;;4946948;29;20304;-72
2022/01/05 00:43:37;;;;;;;2.20;1.33;;;6.90;99.90;;;;;;4953201;29;20208;-73
2022/01/05 00:46:23;;;;;;;2.22;1.35;;;6.90;99.90;;;;;;4952604;29;20211;-73
2022/01/05 00:49:08;;;;;;;2.77;1.50;;;6.90;99.90;;;;;;4949735;28;20333;-72
2022/01/05 00:51:56;;;;;;;2.30;1.70;;;6.90;99.90;;;;;;4952980;29;20938;-72
2022/01/05 00:54:41;;;;;;;2.00;1.75;;;7.00;99.90;;;;;;4946828;29;20628;-73
2022/01/05 00:57:27;;;;;;;1.70;1.40;;;7.10;99.90;;;;;;4958212;28;20287;-72
2022/01/05 01:00:13;;;;;;;2.17;1.58;;;6.90;99.90;;;;;;4951084;29;20344;-73
2022/01/05 01:02:59;;;;;;;2.65;2.13;;;6.90;99.90;;;;;;4952430;28;20674;-73
2022/01/05 01:05:45;;;;;;;2.70;2.10;;;6.90;99.90;;;;;;4954262;29;20261;-73
2022/01/05 01:08:32;;;;;;;3.10;2.80;;;6.90;99.90;;;;;;4950626;28;20232;-73
2022/01/05 01:11:18;;;;;;;2.88;2.58;;;6.80;99.90;;;;;;4954987;29;20217;-73
2022/01/05 01:14:04;;;;;;;2.80;2.10;;;6.90;99.90;;;;;;4955622;29;20263;-73
2022/01/05 01:16:49;;;;;;;2.42;2.15;;;7.00;99.90;;;;;;4955077;29;20280;-73
2022/01/05 01:19:35;;;;;;;3.25;2.80;;;7.00;99.90;;;;;;4953499;28;20321;-73
2022/01/05 01:22:21;;;;;;;4.07;3.33;;;7.00;99.90;;;;;;4955577;29;20215;-74
2022/01/05 01:25:09;;;;;;;3.40;3.10;;;7.00;99.90;;;;;;4950967;29;20577;-72
2022/01/05 01:27:54;;;;;;;3.67;3.25;;;7.00;99.90;;;;;;4958704;28;20227;-72
2022/01/05 01:30:40;;;;;;;3.80;3.35;;;7.10;99.90;;;;;;4955429;29;20259;-73
2022/01/05 01:33:25;;;;;;;3.28;2.80;;;7.20;99.90;;;;;;4949633;29;20733;-73
2022/01/05 01:36:11;;;;;;;2.80;2.50;;;7.20;99.90;;;;;;4955374;28;20331;-73
2022/01/05 01:38:57;;;;;;;4.30;3.08;;;7.20;99.90;;;;;;4950553;28;21085;-72
2022/01/05 01:41:44;;;;;;;3.72;3.03;;;7.20;99.90;;;;;;4954781;29;20256;-71
2022/01/05 01:44:30;;;;;;;3.13;2.75;;;7.30;99.90;;;;;;4951405;29;20207;-73
2022/01/05 01:47:15;;;;;;;2.60;2.30;;;7.30;99.90;;;;;;4952495;28;20220;-73
2022/01/05 01:50:01;;;;;;;3.20;2.63;;;7.30;99.90;;;;;;4955079;29;20212;-73
2022/01/05 01:52:46;;;;;;;3.80;2.53;;;7.30;99.90;;;;;;4953266;29;20212;-73
2022/01/05 01:55:34;;;;;;;3.75;2.60;;;7.20;99.90;;;;;;4951310;29;20212;-71
2022/01/05 01:58:25;;;;;;;4.18;2.95;;;7.10;99.90;;;;;;4950305;29;20352;-73
2022/01/05 02:01:11;;;;;;;4.63;2.20;;;7.20;99.90;;;;;;4951422;29;20209;-73
2022/01/05 02:03:56;;;;;;;3.60;2.20;;;7.20;99.90;;;;;;4954193;29;20212;-73
2022/01/05 02:06:42;;;;;;;2.75;2.05;;;7.20;99.90;;;;;;4954901;29;20283;-73
2022/01/05 02:09:28;;;;;;;2.50;1.87;;;7.20;99.90;;;;;;4953893;28;20315;-72
2022/01/05 02:12:13;;;;;;;2.78;2.47;;;7.10;99.90;;;;;;4953686;29;20833;-72
2022/01/05 02:15:01;;;;;;;2.70;1.85;;;7.10;99.90;;;;;;4954130;28;20839;-73
2022/01/05 02:17:55;;;;;;;4.75;2.17;;;7.10;99.90;;;;;;4949929;28;20223;-73
2022/01/05 02:20:40;;;;;;;4.38;1.75;;;7.10;99.90;;;;;;4954703;29;20806;-73
2022/01/05 02:23:27;;;;;;;2.50;1.60;;;7.20;99.90;;;;;;4952020;29;20681;-73
2022/01/05 02:26:13;;;;;;;2.70;1.30;;;7.10;99.90;;;;;;4950787;29;20280;-73
2022/01/05 02:28:59;;;;;;;2.35;1.77;;;7.10;99.90;;;;;;4948750;28;20360;-73
2022/01/05 02:31:45;;;;;;;2.83;1.60;;;7.20;99.90;;;;;;4950368;29;20275;-73
2022/01/05 02:34:30;;;;;;;3.03;1.80;;;7.20;99.90;;;;;;4954950;28;20972;-72
2022/01/05 02:37:16;;;;;;;2.20;1.50;;;7.20;99.90;;;;;;4950900;28;20525;-73
2022/01/05 02:40:03;;;;;;;2.17;1.37;;;7.20;99.90;;;;;;4955337;29;20432;-73
2022/01/05 02:42:49;;;;;;;2.05;1.60;;;7.00;99.90;;;;;;4954116;29;20438;-72
2022/01/05 02:45:34;;;;;;;3.30;1.90;;;7.10;99.90;;;;;;4950343;28;20211;-71
2022/01/05 02:48:20;;;;;;;2.20;1.80;;;7.10;99.90;;;;;;4950217;28;20487;-73
2022/01/05 02:51:06;;;;;;;2.20;1.60;;;7.00;99.90;;;;;;4953544;29;20456;-73
2022/01/05 02:53:52;;;;;;;3.70;1.80;;;7.10;99.90;;;;;;4950757;29;20448;-73
2022/01/05 02:56:39;;;;;;;2.83;1.80;;;7.10;99.90;;;;;;4952904;28;20451;-73
2022/01/05 02:59:25;;;;;;;3.10;2.03;;;7.10;99.90;;;;;;4951744;28;20484;-73
2022/01/05 03:02:11;;;;;;;4.13;1.52;;;7.10;99.90;;;;;;4950762;29;20570;-73
2022/01/05 03:04:56;;;;;;;3.00;1.50;;;7.00;99.90;;;;;;4953806;29;20774;-73
2022/01/05 03:07:42;;;;;;;2.40;1.63;;;7.00;99.90;;;;;;4948378;28;20459;-73
2022/01/05 03:10:28;;;;;;;2.00;1.60;;;7.20;99.90;;;;;;4945861;29;21017;-72
2022/01/05 03:13:15;;;;;;;3.23;1.90;;;7.30;99.90;;;;;;4947462;29;20524;-73
2022/01/05 03:16:01;;;;;;;4.00;2.07;;;7.30;99.90;;;;;;4951143;28;20464;-73
2022/01/05 03:18:47;;;;;;;2.23;1.67;;;7.30;99.90;;;;;;4951475;28;20435;-73
2022/01/05 03:21:32;;;;;;;2.77;1.40;;;7.40;99.90;;;;;;4949987;29;20391;-73
2022/01/05 03:24:18;;;;;;;2.40;1.70;;;7.50;99.90;;;;;;4952905;29;20431;-72
2022/01/05 03:27:05;;;;;;;2.80;1.23;;;7.10;99.90;;;;;;4948305;28;20456;-72
2022/01/05 03:29:52;;;;;;;1.60;1.20;;;6.70;99.90;;;;;;4953376;29;21054;-72
2022/01/05 03:32:48;;;;;;;1.95;1.50;;;6.10;99.90;;;;;;4950836;29;20287;-73
2022/01/05 03:35:37;;;;;;;3.13;1.50;;;5.90;99.90;;;;;;4949863;29;20336;-72
2022/01/05 03:38:24;;;;;;;1.67;1.27;;;5.60;99.90;;;;;;4952025;28;20235;-72
2022/01/05 03:41:09;;;;;;;2.08;1.35;;;5.40;99.90;;;;;;4953450;29;20828;-72
2022/01/05 03:43:55;;;;;;;3.15;1.50;;;5.30;99.90;;;;;;4952973;28;20220;-72
2022/01/05 03:46:41;;;;;;;1.90;1.27;;;5.20;99.90;;;;;;4945268;29;20208;-73
2022/01/05 03:49:27;;;;;;;2.50;1.55;;;5.20;99.90;;;;;;4950915;29;20368;-73
2022/01/05 03:52:13;;;;;;;2.05;1.30;;;5.30;99.90;;;;;;4952257;29;20272;-73
2022/01/05 03:54:59;;;;;;;4.53;1.63;;;5.30;99.90;;;;;;4952940;29;20207;-72
2022/01/05 03:57:45;;;;;;;4.80;1.77;;;5.30;99.90;;;;;;4956686;28;20579;-73
2022/01/05 04:00:32;;;;;;;2.22;1.27;;;5.30;99.90;;;;;;4950167;29;20208;-73
2022/01/05 04:03:19;;;;;;;2.38;1.95;;;5.00;99.90;;;;;;4947373;29;20193;-73
2022/01/05 04:06:06;;;;;;;2.40;1.65;;;4.90;99.90;;;;;;4947546;29;20321;-73
2022/01/05 04:08:51;;;;;;;1.90;1.48;;;5.00;99.90;;;;;;4951016;28;20833;-72
2022/01/05 04:11:37;;;;;;;2.10;1.58;;;5.20;99.90;;;;;;4951112;29;20203;-73
2022/01/05 04:14:22;;;;;;;10.23;2.10;;;5.10;99.90;;;;;;4946926;29;20208;-73
2022/01/05 04:17:08;;;;;;;3.50;1.75;;;4.90;99.90;;;;;;4949992;28;20208;-72
2022/01/05 04:19:55;;;;;;;2.80;2.25;;;4.80;99.90;;;;;;4951327;29;20204;-73
2022/01/05 04:22:41;;;;;;;3.65;1.98;;;4.80;99.90;;;;;;4951585;29;20565;-72
2022/01/05 04:25:27;;;;;;;2.92;2.00;;;4.70;99.90;;;;;;4946078;29;20212;-70
2022/01/05 04:28:12;;;;;;;2.00;1.70;;;4.60;99.90;;;;;;4956419;28;20320;-73
2022/01/05 04:30:58;;;;;;;3.38;2.30;;;4.50;99.90;;;;;;4950005;29;20332;-73
2022/01/05 04:33:44;;;;;;;3.45;3.00;;;4.50;99.90;;;;;;4952656;29;20732;-72
2022/01/05 04:36:30;;;;;;;3.13;2.72;;;4.50;99.90;;;;;;4948042;29;20562;-73
2022/01/05 04:39:16;;;;;;;3.80;3.38;;;4.70;99.90;;;;;;4954605;28;20733;-72
2022/01/05 04:42:02;;;;;;;3.50;3.20;;;4.80;99.90;;;;;;4952757;28;20218;-73
2022/01/05 04:44:47;;;;;;;4.13;3.30;;;4.80;99.90;;;;;;4952704;29;20195;-72
2022/01/05 04:47:33;;;;;;;4.63;4.10;;;4.80;99.90;;;;;;4952202;28;20232;-73
2022/01/05 04:50:20;;;;;;;4.15;2.85;;;4.90;99.90;;;;;;4953709;29;20211;-73
2022/01/05 04:53:07;;;;;;;4.93;2.60;;;5.00;99.90;;;;;;4955193;28;20204;-73
2022/01/05 04:55:53;;;;;;;5.13;2.65;;;5.10;99.90;;;;;;4951927;28;20572;-72
2022/01/05 04:58:39;;;;;;;2.75;2.20;;;5.00;99.90;;;;;;4956257;28;20226;-72
2022/01/05 05:01:25;;;;;;;2.40;2.17;;;5.00;99.90;;;;;;4953811;29;20331;-72
2022/01/05 05:04:11;;;;;;;3.15;2.72;;;5.00;99.90;;;;;;4956638;29;20192;-72
2022/01/05 05:06:57;;;;;;;2.60;2.10;;;4.90;99.90;;;;;;4953566;29;20324;-72
2022/01/05 05:09:44;;;;;;;4.65;2.60;;;5.00;99.90;;;;;;4952702;29;20216;-73
2022/01/05 05:12:30;;;;;;;4.15;2.70;;;5.00;99.90;;;;;;4950773;29;20200;-72
2022/01/05 05:15:15;;;;;;;2.50;2.30;;;4.90;99.90;;;;;;4950061;29;20200;-71
2022/01/05 05:18:01;;;;;;;3.70;2.63;;;5.00;99.90;;;;;;4953396;28;20240;-73
2022/01/05 05:20:46;;;;;;;2.40;2.03;;;5.00;99.90;;;;;;4956741;29;20461;-73
2022/01/05 05:23:32;;;;;;;2.85;1.70;;;5.00;99.90;;;;;;4955458;29;20673;-73
2022/01/05 05:26:19;;;;;;;6.43;2.10;;;4.90;99.90;;;;;;4953661;28;20702;-73
2022/01/05 05:29:05;;;;;;;2.83;1.67;;;5.00;99.90;;;;;;4953215;28;20251;-73
2022/01/05 05:31:50;;;;;;;3.53;1.85;;;4.90;99.90;;;;;;4955314;29;20196;-73
2022/01/05 05:34:36;;;;;;;3.65;1.73;;;4.70;99.90;;;;;;4952377;29;20778;-72
2022/01/05 05:37:23;;;;;;;7.95;2.38;;;4.70;99.90;;;;;;4954479;28;20220;-72
2022/01/05 05:40:09;;;;;;;3.45;2.40;;;4.80;99.90;;;;;;4980046;23;20196;-71
2022/01/05 05:42:56;;;;;;;5.30;2.13;;;5.00;99.90;;;;;;4933997;29;20220;-71
2022/01/05 05:45:42;;;;;;;2.20;1.45;;;5.00;99.90;;;;;;4933533;29;20686;-71
2022/01/05 05:48:27;;;;;;;9.25;1.80;;;5.00;99.90;;;;;;4930436;29;20212;-71
2022/01/05 05:51:13;;;;;;;5.72;2.00;;;5.10;99.90;;;;;;4934955;29;20590;-71
2022/01/05 05:53:58;;;;;;;2.55;1.67;;;5.20;99.90;;;;;;4928481;29;20570;-70
2022/01/05 05:56:44;;;;;;;5.15;1.90;;;5.10;99.90;;;;;;4927420;29;20213;-71
2022/01/05 05:59:31;;;;;;;5.22;2.00;;;5.00;99.90;;;;;;4932714;29;20268;-71
2022/01/05 06:02:17;;;;;;;3.38;1.70;;;5.00;99.90;;;;;;4929032;29;20232;-71
2022/01/05 06:05:03;;;;;;;7.72;2.20;;;5.00;99.90;;;;;;4928929;29;20197;-72
2022/01/05 06:07:49;;;;;;;5.80;2.05;;;5.00;99.90;;;;;;4920093;29;20217;-71
2022/01/05 06:10:34;;;;;;;5.35;2.00;;;5.10;99.90;;;;;;4936676;29;20365;-71
2022/01/05 06:13:20;;;;;;;4.68;2.08;;;5.10;99.90;;;;;;4926117;29;20216;-71
2022/01/05 06:16:07;;;;;;;8.18;2.60;;;5.00;99.90;;;;;;4933038;29;20725;-71
2022/01/05 06:18:52;;;;;;;7.75;2.00;;;5.00;99.90;;;;;;4934859;29;20341;-72
2022/01/05 06:21:38;;;;;;;6.03;2.40;;;4.80;99.90;;;;;;4935202;29;20312;-70
2022/01/05 06:24:24;;;;;;;6.38;1.30;;;4.80;99.90;;;;;;4924398;29;20225;-71
2022/01/05 06:27:10;;;;;;;4.75;2.20;;;4.70;99.90;;;;;;4940480;29;20208;-71
2022/01/05 06:29:56;;;;;;;8.82;2.38;;;4.60;99.90;;;;;;4930370;29;20391;-71
2022/01/05 06:32:45;;;;;;;7.50;1.77;;;4.50;99.90;;;;;;4926858;29;20691;-71
2022/01/05 06:35:31;;;;;;;5.00;2.03;;;4.60;99.90;;;;;;4924978;29;20200;-70
2022/01/05 06:38:17;;;;;;;4.15;1.77;;;4.60;99.90;;;;;;4929585;29;20205;-72
2022/01/05 06:41:03;;;;;;;4.32;1.77;;;4.60;99.90;;;;;;4933812;29;20245;-71
2022/01/05 06:43:49;;;;;;;9.65;3.22;;;4.50;99.90;;;;;;4924420;29;20213;-71
2022/01/05 06:46:34;;;;;;;6.07;1.85;;;4.40;99.90;;;;;;4933942;29;20288;-70
2022/01/05 06:49:23;;;;;;;5.18;2.95;;;4.40;99.90;;;;;;4932975;29;20573;-71
2022/01/05 06:52:11;;;;;;;4.60;2.13;;;4.40;99.90;;;;;;4928175;29;20225;-71
2022/01/05 06:54:57;;;;;;;6.38;2.97;;;4.40;99.90;;;;;;4932013;29;20330;-71
2022/01/05 06:57:43;;;;;;;24.88;11.43;;;4.40;99.90;;;;;;4928151;29;20584;-70
2022/01/05 07:00:31;;;;;;;6.07;3.22;;;4.30;99.90;;;;;;4923858;29;20599;-71
2022/01/05 07:03:16;;;;;;;5.20;2.83;;;4.20;99.90;;;;;;4928017;29;20201;-70
2022/01/05 07:06:04;;;;;;;7.50;2.53;;;4.10;99.90;;;;;;4930846;29;20205;-71
2022/01/05 07:08:50;;;;;;;10.45;4.15;;;4.20;99.90;;;;;;4934007;29;20209;-71
2022/01/05 07:11:36;;;;;;;10.43;3.45;;;4.30;99.90;;;;;;4932081;29;20233;-70
2022/01/05 07:14:23;;;;;;;12.88;3.30;;;4.20;99.90;;;;;;4924349;29;20220;-71
2022/01/05 07:17:09;;;;;;;8.00;2.75;;;4.00;99.90;;;;;;4923825;29;20221;-69
2022/01/05 07:19:55;;;;;;;3.35;2.03;;;4.00;99.90;;;;;;4935551;29;20217;-71
2022/01/05 07:22:42;;;;;;;6.82;2.85;;;4.00;99.90;;;;;;4926351;29;20201;-71
2022/01/05 07:25:28;;;;;;;8.88;2.22;;;3.90;99.90;;;;;;4925995;29;20284;-71
2022/01/05 07:28:13;;;;;;;7.80;3.55;;;3.80;99.90;;;;;;4938128;29;20612;-70
2022/01/05 07:30:58;;;;;;;9.18;2.38;;;3.80;99.90;;;;;;4930639;29;20254;-71
2022/01/05 07:33:45;;;;;;;10.95;5.68;;;3.80;99.90;;;;;;4927727;29;20345;-71
2022/01/05 07:36:30;;;;;;;7.90;2.70;;;3.70;99.90;;;;;;4917807;29;20253;-71
2022/01/05 07:39:17;;;;;;;4.43;2.50;;;3.60;99.90;;;;;;4933010;29;20228;-70
2022/01/05 07:42:03;;;;;;;4.55;2.10;;;3.60;99.90;;;;;;4926838;29;20368;-71
2022/01/05 07:44:50;;;;;;;7.55;3.33;;;3.70;99.90;;;;;;4924486;29;20288;-71
2022/01/05 07:47:36;;;;;;;11.10;4.10;;;3.70;99.90;;;;;;4923958;29;20293;-70
2022/01/05 07:50:22;;;;;;;6.93;2.70;;;3.60;99.90;;;;;;4927249;29;20587;-70
2022/01/05 07:53:07;;;;;;;7.95;2.97;;;3.70;99.90;;;;;;4920610;29;20205;-70
2022/01/05 07:55:54;;;;;;;6.32;2.55;;;3.70;99.90;;;;;;4925312;29;20209;-69
2022/01/05 07:58:40;;;;;;;7.32;2.20;;;3.70;99.90;;;;;;4929527;29;20209;-69
2022/01/05 08:01:26;;;;;;;12.68;2.45;;;3.70;99.90;;;;;;4920742;29;20229;-68
2022/01/05 08:04:14;;;;;;;8.23;2.33;;;3.90;99.90;;;;;;4918402;29;20205;-70
2022/01/05 08:07:00;;;;;;;4.85;3.20;;;3.90;99.90;;;;;;4920735;29;20213;-70
2022/01/05 08:09:45;;;;;;;12.00;3.95;;;3.90;99.90;;;;;;4927296;29;20201;-70
2022/01/05 08:12:32;;;;;;;12.73;5.47;;;3.80;99.90;;;;;;4928832;29;20628;-70
2022/01/05 08:15:18;;;;;;;24.25;8.35;;;3.70;99.90;;;;;;4929671;29;20290;-70
2022/01/05 08:18:03;;;;;;;25.52;6.60;;;3.60;99.90;;;;;;4925672;29;20217;-71
2022/01/05 08:20:49;;;;;;;9.82;3.42;;;3.70;99.90;;;;;;4928803;29;20622;-69
2022/01/05 08:23:35;;;;;;;10.63;2.88;;;3.80;99.90;;;;;;4915705;29;20301;-71
2022/01/05 08:26:21;;;;;;;10.48;4.10;;;3.70;99.90;;;;;;4934164;29;20200;-71
2022/01/05 08:29:08;;;;;;;29.95;9.57;;;3.70;99.90;;;;;;4922759;29;20285;-69
2022/01/05 08:31:54;;;;;;;31.75;8.60;;;3.50;99.90;;;;;;4923069;29;20708;-70
2022/01/05 08:34:39;;;;;;;10.02;3.88;;;3.60;99.90;;;;;;4923447;29;20624;-70
2022/01/05 08:37:25;;;;;;;12.50;3.70;;;3.50;99.90;;;;;;4926940;29;20736;-70
2022/01/05 08:40:12;;;;;;;18.67;7.25;;;3.60;99.90;;;;;;4925811;29;20237;-70
2022/01/05 08:42:58;;;;;;;13.90;4.88;;;3.70;99.90;;;;;;4927709;29;20361;-71
2022/01/05 08:45:46;;;;;;;15.02;6.72;;;3.70;99.90;;;;;;4930965;29;20278;-70
2022/01/05 08:48:32;;;;;;;18.13;4.00;;;3.80;99.90;;;;;;4934131;29;20213;-70
2022/01/05 08:51:17;;;;;;;21.48;5.85;;;4.00;99.90;;;;;;4929718;29;20606;-70
2022/01/05 08:54:03;;;;;;;24.60;6.30;;;4.00;99.90;;;;;;4928873;29;20238;-70
2022/01/05 08:56:49;;;;;;;72.25;23.23;;;4.10;99.90;;;;;;4926257;29;20340;-71
2022/01/05 08:59:36;;;;;;;25.63;9.27;;;4.00;99.90;;;;;;4922558;29;20226;-70
2022/01/05 09:02:23;;;;;;;32.47;10.98;;;4.10;99.90;;;;;;4922622;29;20228;-69
2022/01/05 09:05:10;;;;;;;8.05;3.05;;;4.00;99.90;;;;;;4931289;29;20205;-71
2022/01/05 09:07:55;;;;;;;20.17;7.28;;;3.80;99.90;;;;;;4923980;29;20250;-71
2022/01/05 09:10:41;;;;;;;24.55;7.15;;;3.80;99.90;;;;;;4927932;29;20232;-70
2022/01/05 09:13:26;;;;;;;8.63;2.63;;;3.90;99.90;;;;;;4920684;29;20296;-70
2022/01/05 09:16:12;;;;;;;8.00;4.88;;;4.00;99.90;;;;;;4924018;29;20281;-71
2022/01/05 09:18:59;;;;;;;6.60;2.90;;;4.10;99.90;;;;;;4931932;29;20213;-70
2022/01/05 09:21:48;;;;;;;8.50;2.92;;;4.10;99.90;;;;;;4920678;29;20241;-71
2022/01/05 09:24:34;;;;;;;21.13;7.10;;;4.10;99.90;;;;;;4929440;29;20202;-71
2022/01/05 09:27:20;;;;;;;7.65;2.83;;;4.10;99.90;;;;;;4943946;29;20209;-71
2022/01/05 09:30:09;;;;;;;14.43;4.22;;;4.20;99.90;;;;;;4937251;29;20258;-71
2022/01/05 09:32:55;;;;;;;17.13;5.22;;;4.30;99.90;;;;;;4926587;29;20698;-71
2022/01/05 09:35:43;;;;;;;11.80;3.08;;;4.20;99.90;;;;;;4926257;29;20695;-71
2022/01/05 09:38:35;;;;;;;7.85;2.47;;;4.30;99.90;;;;;;4923544;29;20220;-71
2022/01/05 09:44:27;;;;;;;6.05;2.00;;;4.40;99.90;;;;;;4934722;29;20256;-71
2022/01/05 09:47:32;;;;;;;11.65;4.30;;;4.30;99.90;;;;;;4936300;29;20685;-71
2022/01/05 09:50:20;;;;;;;9.93;2.50;;;4.40;99.90;;;;;;4918064;29;20558;-70
2022/01/05 09:53:09;;;;;;;4.93;2.17;;;4.40;99.90;;;;;;4923109;29;20234;-70
2022/01/05 09:55:55;;;;;;;8.65;2.30;;;4.40;99.90;;;;;;4929043;29;20581;-70
2022/01/05 09:58:42;;;;;;;6.38;2.40;;;4.40;99.90;;;;;;4925998;29;20296;-70
2022/01/05 10:01:30;;;;;;;11.13;2.47;;;4.60;99.90;;;;;;4922155;29;20240;-70
2022/01/05 10:04:16;;;;;;;21.00;5.95;;;4.50;99.90;;;;;;4934893;29;20201;-70
2022/01/05 10:07:02;;;;;;;17.75;5.38;;;4.50;99.90;;;;;;4921619;29;20321;-70
2022/01/05 10:09:50;;;;;;;40.05;13.02;;;4.60;99.90;;;;;;4928916;29;20228;-69
2022/01/05 10:12:36;;;;;;;20.55;7.10;;;4.70;99.90;;;;;;4920695;29;20718;-70
2022/01/05 10:15:23;;;;;;;18.70;4.90;;;4.50;99.90;;;;;;4926618;29;20208;-70
2022/01/05 10:18:14;;;;;;;16.08;4.97;;;4.50;99.90;;;;;;4930306;29;20573;-68
2022/01/05 10:21:02;;;;;;;10.57;2.90;;;4.60;99.90;;;;;;4930108;29;20229;-70
2022/01/05 10:23:49;;;;;;;15.35;5.18;;;4.60;99.90;;;;;;4932636;29;20208;-71
2022/01/05 10:26:39;;;;;;;14.25;4.22;;;4.70;99.90;;;;;;4929522;29;20210;-70
2022/01/05 10:29:25;;;;;;;11.77;5.03;;;4.80;99.90;;;;;;4925536;29;20209;-70
2022/01/05 10:32:10;;;;;;;11.15;4.43;;;4.90;99.90;;;;;;4925099;29;20513;-71
2022/01/05 10:35:01;;;;;;;14.70;4.10;;;4.90;99.90;;;;;;4931714;29;20208;-71
2022/01/05 10:37:57;;;;;;;14.68;2.53;;;4.80;99.90;;;;;;4934673;29;20316;-71
2022/01/05 10:40:44;;;;;;;12.63;2.40;;;4.80;99.90;;;;;;4936038;29;20716;-70
2022/01/05 10:43:31;;;;;;;6.35;2.35;;;4.70;99.90;;;;;;4919048;29;20263;-71
2022/01/05 10:46:35;;;;;;;9.68;2.92;;;4.60;99.90;;;;;;4936351;29;20197;-70
2022/01/05 10:49:29;;;;;;;9.85;2.53;;;4.60;99.90;;;;;;4935671;29;20284;-70
2022/01/05 10:52:26;;;;;;;6.75;2.30;;;4.40;99.90;;;;;;4933695;29;20237;-71
2022/01/05 10:55:14;;;;;;;8.77;2.78;;;4.50;99.90;;;;;;4935797;29;20207;-71
2022/01/05 10:58:02;;;;;;;7.97;2.85;;;4.40;99.90;;;;;;4940816;29;20218;-71
2022/01/05 11:00:52;;;;;;;11.13;2.78;;;4.20;99.90;;;;;;4933568;29;20357;-71
2022/01/05 11:03:39;;;;;;;6.80;2.85;;;4.20;99.90;;;;;;4920759;29;20201;-70
2022/01/05 11:06:24;;;;;;;7.90;2.83;;;4.20;99.90;;;;;;4928672;29;20212;-71
2022/01/05 11:09:11;;;;;;;11.48;4.10;;;4.20;99.90;;;;;;4935632;29;20593;-70
2022/01/05 11:11:57;;;;;;;12.88;3.58;;;4.30;99.90;;;;;;4924195;29;20221;-71
2022/01/05 11:14:43;;;;;;;5.70;2.22;;;4.20;99.90;;;;;;4931769;29;20253;-71
2022/01/05 11:17:30;;;;;;;9.15;2.45;;;4.30;99.90;;;;;;4931656;29;20205;-70
2022/01/05 11:20:16;;;;;;;9.63;2.95;;;4.30;99.90;;;;;;4926436;29;20228;-71
2022/01/05 11:23:01;;;;;;;8.30;2.47;;;4.20;99.90;;;;;;4927399;29;20208;-70
2022/01/05 11:25:48;;;;;;;15.63;2.90;;;4.30;99.90;;;;;;4935557;29;20330;-71
2022/01/05 11:28:34;;;;;;;10.15;2.60;;;4.40;99.90;;;;;;4930318;29;20371;-71
2022/01/05 11:31:20;;;;;;;10.70;3.22;;;4.50;99.90;;;;;;4921588;29;20229;-70
2022/01/05 11:34:08;;;;;;;6.80;3.05;;;4.50;99.90;;;;;;4919801;29;20213;-70
2022/01/05 11:36:54;;;;;;;9.88;2.65;;;4.50;99.90;;;;;;4935239;29;20201;-71
2022/01/05 11:39:44;;;;;;;7.47;3.88;;;4.60;99.90;;;;;;4921116;29;20289;-70
2022/01/05 11:42:33;;;;;;;21.42;4.47;;;4.70;99.90;;;;;;4951674;23;20301;-74
2022/01/05 11:45:30;;;;;;;6.97;3.10;;;4.70;99.90;;;;;;4954241;29;20220;-75
2022/01/05 11:48:21;;;;;;;12.80;3.28;;;4.80;99.90;;;;;;4953196;28;20203;-74
2022/01/05 11:51:08;;;;;;;14.07;4.78;;;4.80;99.90;;;;;;4951851;28;20675;-74
2022/01/05 11:53:54;;;;;;;9.60;3.85;;;4.80;99.90;;;;;;4954158;29;20324;-74
2022/01/05 11:56:42;;;;;;;8.80;2.70;;;4.90;99.90;;;;;;4954133;29;20243;-73
2022/01/05 11:59:36;;;;;;;10.20;3.03;;;4.80;99.90;;;;;;4954127;29;20601;-74
2022/01/05 12:02:22;;;;;;;6.68;2.35;;;4.70;99.90;;;;;;4934897;29;20232;-74
2022/01/05 12:05:08;;;;;;;12.57;4.10;;;4.80;99.90;;;;;;4933874;29;20217;-74
2022/01/05 12:07:55;;;;;;;6.03;3.17;;;4.80;99.90;;;;;;4934322;29;20780;-73
2022/01/05 12:10:52;;;;;;;11.73;2.80;;;4.90;99.90;;;;;;4932637;29;20205;-73
2022/01/05 12:13:38;;;;;;;7.45;2.50;;;5.00;99.90;;;;;;4926298;29;20292;-74
2022/01/05 12:16:24;;;;;;;17.10;2.65;;;5.10;99.90;;;;;;4928568;29;20208;-73
2022/01/05 12:19:12;;;;;;;8.43;2.53;;;5.10;99.90;;;;;;4933069;29;20205;-73
2022/01/05 12:22:00;;;;;;;7.60;2.47;;;5.00;99.90;;;;;;4918807;29;20288;-73
2022/01/05 12:25:09;;;;;;;10.15;2.55;;;5.00;99.90;;;;;;4930832;29;20284;-73
2022/01/05 12:28:04;;;;;;;11.82;3.17;;;4.90;99.90;;;;;;4934261;29;20625;-74
2022/01/05 12:30:50;;;;;;;11.52;2.70;;;4.90;99.90;;;;;;4925149;29;20209;-74
2022/01/05 12:33:42;;;;;;;13.18;3.25;;;4.80;99.90;;;;;;4922930;29;20608;-73
2022/01/05 12:36:35;;;;;;;14.65;3.45;;;4.80;99.90;;;;;;4932594;29;20660;-72
2022/01/05 12:39:49;;;;;;;8.15;2.25;;;4.80;99.90;;;;;;4925862;29;20333;-74
2022/01/05 12:42:36;;;;;;;17.60;6.82;;;4.90;99.90;;;;;;4927474;29;20228;-71
2022/01/05 12:45:46;;;;;;;15.20;3.03;;;4.90;99.90;;;;;;4929421;29;20209;-73
2022/01/05 12:48:58;;;;;;;10.02;2.75;;;4.70;99.90;;;;;;4931755;29;20730;-74
2022/01/05 12:51:50;;;;;;;14.50;2.85;;;4.80;99.90;;;;;;4931097;29;20221;-73
2022/01/05 12:54:42;;;;;;;16.30;3.38;;;4.80;99.90;;;;;;4928343;29;20204;-73
2022/01/05 12:57:27;;;;;;;8.25;2.55;;;4.80;99.90;;;;;;4933728;29;20253;-73
2022/01/05 13:00:15;;;;;;;5.63;2.35;;;4.70;99.90;;;;;;4935940;29;20333;-74
2022/01/05 13:03:03;;;;;;;8.52;2.55;;;4.70;99.90;;;;;;4938530;29;20225;-73
2022/01/05 13:05:49;;;;;;;6.47;2.70;;;4.70;99.90;;;;;;4937485;29;20193;-74
2022/01/05 13:08:35;;;;;;;9.93;3.08;;;4.60;99.90;;;;;;4937570;29;20268;-73
2022/01/05 13:11:33;;;;;;;4.10;2.05;;;4.50;99.90;;;;;;4934521;28;20208;-73
2022/01/05 13:14:20;;;;;;;9.35;2.08;;;4.70;99.90;;;;;;4936594;29;20581;-73
2022/01/05 13:17:10;;;;;;;10.07;2.75;;;4.80;99.90;;;;;;4934120;29;20205;-71
2022/01/05 13:19:58;;;;;;;18.40;2.63;;;4.70;99.90;;;;;;4937374;29;20200;-72
2022/01/05 13:22:49;;;;;;;12.40;2.78;;;4.80;99.90;;;;;;4930688;29;20241;-72
2022/01/05 13:25:34;;;;;;;4.68;2.70;;;4.80;99.90;;;;;;4936903;29;20626;-72
2022/01/05 13:28:20;;;;;;;9.63;2.95;;;4.90;99.90;;;;;;4936990;29;20781;-72
2022/01/05 13:31:09;;;;;;;5.53;2.25;;;5.00;99.90;;;;;;4933608;29;20242;-72
2022/01/05 13:34:08;;;;;;;9.52;2.97;;;5.10;99.90;;;;;;4933611;29;20264;-72
2022/01/05 13:36:54;;;;;;;10.88;4.38;;;5.00;99.90;;;;;;4935612;29;20289;-72
2022/01/05 13:39:42;;;;;;;14.13;3.80;;;5.00;99.90;;;;;;4931690;29;20273;-72
2022/01/05 13:42:34;;;;;;;7.30;2.60;;;4.90;99.90;;;;;;4931551;29;20601;-72
2022/01/05 13:45:23;;;;;;;9.80;3.85;;;4.80;99.90;;;;;;4937297;29;20289;-72
2022/01/05 13:48:11;;;;;;;7.20;2.75;;;4.80;99.90;;;;;;4930820;29;20700;-72
2022/01/05 13:51:00;;;;;;;11.98;3.45;;;4.80;99.90;;;;;;4934059;29;20253;-72
2022/01/05 13:53:46;;;;;;;16.17;3.20;;;4.90;99.90;;;;;;4935248;29;20258;-72
2022/01/05 13:56:40;;;;;;;10.38;4.15;;;4.90;99.90;;;;;;4937268;29;20229;-73
2022/01/05 13:59:36;;;;;;;9.23;2.70;;;4.90;99.90;;;;;;4929885;29;20209;-72
2022/01/05 14:02:23;;;;;;;9.35;2.92;;;4.90;99.90;;;;;;4922611;29;20224;-72
2022/01/05 14:05:10;;;;;;;16.95;2.95;;;4.80;99.90;;;;;;4937061;29;20335;-72
2022/01/05 14:08:09;;;;;;;5.15;2.80;;;4.80;99.90;;;;;;4933894;29;20594;-73
2022/01/05 14:11:04;;;;;;;6.88;2.75;;;4.80;99.90;;;;;;4936518;28;20227;-73
2022/01/05 14:13:52;;;;;;;8.57;2.53;;;4.70;99.90;;;;;;4933354;29;20730;-72
2022/01/05 14:16:40;;;;;;;8.07;2.80;;;4.80;99.90;;;;;;4934791;29;20260;-73
2022/01/05 14:19:29;;;;;;;6.80;2.97;;;4.80;99.90;;;;;;4934620;29;20281;-73
2022/01/05 14:22:19;;;;;;;6.80;2.47;;;4.80;99.90;;;;;;4933529;29;20446;-72
2022/01/05 14:25:06;;;;;;;8.00;3.00;;;4.80;99.90;;;;;;4932757;29;20206;-72
2022/01/05 14:27:52;;;;;;;9.35;2.40;;;4.80;99.90;;;;;;4932847;29;20205;-72
2022/01/05 14:30:38;;;;;;;15.13;2.90;;;4.70;99.90;;;;;;4934817;29;20213;-73
2022/01/05 14:33:29;;;;;;;6.50;2.65;;;4.70;99.90;;;;;;4933697;29;20220;-72
2022/01/05 14:36:23;;;;;;;8.73;2.97;;;4.70;99.90;;;;;;4920413;29;20210;-73
2022/01/05 14:39:12;;;;;;;5.55;2.40;;;4.70;99.90;;;;;;4928048;29;20213;-72
2022/01/05 14:42:02;;;;;;;8.27;2.85;;;4.80;99.90;;;;;;4921062;29;20237;-73
2022/01/05 14:44:49;;;;;;;9.82;2.47;;;4.80;99.90;;;;;;4933184;29;20330;-72